createdAt,value
2023-04-15T00:01:21.052Z,21.3
2023-04-15T00:03:21.173Z,21.1
2023-04-15T00:05:21.001Z,21.0
2023-04-15T00:07:23.537Z,20.9
2023-04-15T00:09:21.024Z,21.0
2023-04-15T00:11:20.986Z,21.0
2023-04-15T00:13:20.997Z,21.0
2023-04-15T00:15:21.101Z,21.1
2023-04-15T00:17:21.103Z,21.3
2023-04-15T00:19:21.226Z,21.5
2023-04-15T00:21:21.087Z,21.2
2023-04-15T00:23:20.984Z,20.9
2023-04-15T00:25:21.051Z,21.0
2023-04-15T00:27:20.984Z,21.0
2023-04-15T00:29:21.056Z,21.1
2023-04-15T00:31:21.630Z,21.2
2023-04-15T00:33:21.031Z,21.3
2023-04-15T00:35:21.020Z,21.3
2023-04-15T00:37:21.067Z,21.3
2023-04-15T00:39:21.034Z,21.2
2023-04-15T00:41:21.018Z,21.0
2023-04-15T00:43:21.044Z,20.9
2023-04-15T00:45:21.085Z,21.0
2023-04-15T00:47:21.067Z,20.9
2023-04-15T00:49:21.042Z,20.9
2023-04-15T00:51:21.097Z,20.8
2023-04-15T00:53:20.997Z,20.9
2023-04-15T00:55:21.036Z,20.9
2023-04-15T00:57:21.039Z,21.0
2023-04-15T00:59:21.033Z,20.9
2023-04-15T01:01:21.093Z,20.6
2023-04-15T01:03:21.275Z,20.5
2023-04-15T01:05:21.046Z,21.0
2023-04-15T01:07:21.056Z,21.1
2023-04-15T01:09:21.501Z,20.8
2023-04-15T01:11:27.083Z,20.9
2023-04-15T01:13:21.091Z,21.1
2023-04-15T01:15:21.087Z,21.0
2023-04-15T01:17:21.078Z,21.0
2023-04-15T01:19:21.146Z,20.9
2023-04-15T01:21:21.153Z,21.3
2023-04-15T01:23:21.246Z,21.4
2023-04-15T01:25:21.248Z,21.2
2023-04-15T01:27:21.049Z,21.1
2023-04-15T01:29:21.289Z,20.9
2023-04-15T01:31:21.101Z,20.7
2023-04-15T01:33:25.983Z,20.9
2023-04-15T01:35:21.176Z,20.9
2023-04-15T01:37:21.185Z,20.7
2023-04-15T01:39:21.072Z,21.0
2023-04-15T01:41:21.131Z,21.3
2023-04-15T01:43:21.194Z,21.3
2023-04-15T01:45:21.308Z,21.3
2023-04-15T01:47:21.139Z,21.3
2023-04-15T01:51:24.149Z,21.1
2023-04-15T01:53:21.125Z,21.1
2023-04-15T01:57:26.346Z,21.2
2023-04-15T01:59:21.076Z,21.5
2023-04-15T02:01:21.245Z,21.7
2023-04-15T02:03:21.265Z,21.9
2023-04-15T02:05:35.254Z,21.5
2023-04-15T02:07:35.184Z,21.4
2023-04-15T02:09:35.247Z,21.6
2023-04-15T02:11:36.540Z,21.4
2023-04-15T02:13:35.930Z,21.0
2023-04-15T02:15:35.192Z,21.0
2023-04-15T02:17:35.433Z,21.0
2023-04-15T02:19:35.205Z,20.9
2023-04-15T02:21:35.218Z,20.6
2023-04-15T02:23:35.213Z,20.9
2023-04-15T02:25:37.771Z,20.8
2023-04-15T02:27:35.173Z,21.0
2023-04-15T02:29:37.845Z,20.7
2023-04-15T02:31:35.371Z,20.8
2023-04-15T02:33:35.247Z,20.6
2023-04-15T02:35:35.191Z,20.4
2023-04-15T02:37:35.341Z,20.5
2023-04-15T02:39:35.249Z,20.3
2023-04-15T02:41:35.195Z,20.1
2023-04-15T02:43:35.326Z,20.4
2023-04-15T02:45:35.263Z,20.5
2023-04-15T02:47:40.133Z,20.7
2023-04-15T02:49:35.405Z,20.8
2023-04-15T02:51:35.221Z,21.1
2023-04-15T02:53:35.309Z,21.4
2023-04-15T02:55:35.283Z,21.3
2023-04-15T02:57:35.205Z,21.1
2023-04-15T02:59:35.257Z,20.9
2023-04-15T03:01:35.298Z,20.9
2023-04-15T03:03:40.222Z,21.0
2023-04-15T03:05:35.274Z,21.0
2023-04-15T03:07:35.177Z,21.2
2023-04-15T03:09:35.203Z,21.3
2023-04-15T03:11:36.410Z,21.4
2023-04-15T03:13:35.214Z,21.6
2023-04-15T03:15:35.347Z,21.6
2023-04-15T03:17:35.220Z,21.8
2023-04-15T03:19:35.236Z,21.8
2023-04-15T03:21:35.236Z,21.6
2023-04-15T03:23:35.205Z,21.5
2023-04-15T03:25:40.153Z,21.6
2023-04-15T03:27:35.325Z,21.5
2023-04-15T03:29:35.259Z,21.6
2023-04-15T03:31:35.336Z,22.2
2023-04-15T03:33:36.449Z,22.1
2023-04-15T03:35:35.297Z,22.3
2023-04-15T03:37:35.277Z,22.4
2023-04-15T03:39:35.360Z,22.5
2023-04-15T03:41:35.252Z,22.4
2023-04-15T03:43:35.347Z,22.0
2023-04-15T03:45:35.231Z,21.9
2023-04-15T03:47:35.223Z,21.7
2023-04-15T03:49:35.216Z,21.6
2023-04-15T03:51:35.303Z,21.1
2023-04-15T03:53:35.265Z,20.8
2023-04-15T03:55:35.281Z,21.2
2023-04-15T03:57:40.124Z,21.3
2023-04-15T03:59:35.386Z,21.2
2023-04-15T04:01:35.342Z,21.5
2023-04-15T04:03:36.016Z,21.5
2023-04-15T04:05:35.245Z,21.1
2023-04-15T04:08:35.548Z,20.9
2023-04-15T04:10:35.554Z,21.0
2023-04-15T04:12:35.225Z,20.9
2023-04-15T04:14:35.288Z,20.9
2023-04-15T04:16:35.328Z,20.8
2023-04-15T04:18:35.437Z,20.9
2023-04-15T04:20:35.324Z,21.0
2023-04-15T04:22:35.250Z,21.4
2023-04-15T04:24:35.306Z,21.3
2023-04-15T04:26:35.291Z,21.4
2023-04-15T04:28:35.328Z,21.4
2023-04-15T04:30:36.340Z,21.3
2023-04-15T04:32:35.343Z,21.2
2023-04-15T04:34:35.287Z,21.0
2023-04-15T04:36:35.363Z,20.9
2023-04-15T04:38:35.246Z,21.0
2023-04-15T04:40:35.288Z,20.8
2023-04-15T04:42:36.850Z,20.9
2023-04-15T04:44:35.235Z,21.2
2023-04-15T04:46:35.404Z,21.2
2023-04-15T04:48:35.274Z,21.5
2023-04-15T04:50:35.232Z,21.5
2023-04-15T04:52:36.192Z,21.6
2023-04-15T04:54:35.292Z,21.8
2023-04-15T04:56:38.739Z,22.0
2023-04-15T04:58:35.279Z,21.9
2023-04-15T05:00:35.460Z,21.6
2023-04-15T05:02:38.990Z,21.6
2023-04-15T05:04:40.690Z,21.8
2023-04-15T05:06:35.281Z,21.9
2023-04-15T05:08:35.291Z,22.0
2023-04-15T05:10:35.309Z,21.9
2023-04-15T05:12:36.632Z,22.0
2023-04-15T05:14:35.325Z,21.8
2023-04-15T05:16:35.375Z,21.9
2023-04-15T05:18:35.282Z,21.8
2023-04-15T05:20:35.464Z,21.9
2023-04-15T05:22:35.371Z,21.9
2023-04-15T05:24:35.326Z,22.0
2023-04-15T05:26:35.302Z,22.0
2023-04-15T05:28:35.294Z,22.1
2023-04-15T05:30:35.526Z,21.8
2023-04-15T05:32:35.447Z,21.8
2023-04-15T05:34:35.378Z,21.9
2023-04-15T05:36:35.373Z,21.8
2023-04-15T05:38:37.946Z,22.0
2023-04-15T05:40:38.454Z,21.9
2023-04-15T05:42:35.369Z,21.8
2023-04-15T05:44:35.343Z,21.5
2023-04-15T05:46:35.433Z,21.3
2023-04-15T05:48:35.304Z,21.2
2023-04-15T05:50:38.444Z,21.2
2023-04-15T05:52:35.284Z,21.3
2023-04-15T05:54:40.244Z,20.9
2023-04-15T05:56:35.415Z,21.0
2023-04-15T05:58:35.344Z,20.8
2023-04-15T06:00:35.347Z,20.8
2023-04-15T06:02:35.504Z,20.9
2023-04-15T06:04:35.408Z,21.1
2023-04-15T06:06:35.337Z,20.9
2023-04-15T06:08:35.469Z,21.1
2023-04-15T06:10:35.398Z,20.8
2023-04-15T06:12:35.288Z,20.7
2023-04-15T06:14:35.277Z,20.8
2023-04-15T06:16:37.761Z,20.8
2023-04-15T06:18:35.310Z,20.9
2023-04-15T06:20:35.467Z,20.9
2023-04-15T06:22:35.281Z,20.7
2023-04-15T06:24:35.391Z,20.9
2023-04-15T06:26:38.724Z,21.0
2023-04-15T06:28:38.107Z,21.4
2023-04-15T06:30:35.487Z,21.6
2023-04-15T06:32:36.510Z,21.5
2023-04-15T06:34:35.338Z,21.3
2023-04-15T06:36:35.350Z,21.4
2023-04-15T06:38:39.404Z,21.8
2023-04-15T06:40:35.285Z,21.8
2023-04-15T06:42:35.297Z,21.8
2023-04-15T06:44:35.525Z,21.9
2023-04-15T06:46:40.265Z,21.7
2023-04-15T06:48:35.341Z,21.9
2023-04-15T06:50:35.482Z,22.1
2023-04-15T06:52:35.302Z,21.9
2023-04-15T06:54:35.316Z,21.9
2023-04-15T06:56:35.371Z,21.9
2023-04-15T06:58:37.982Z,21.8
2023-04-15T07:00:35.369Z,22.0
2023-04-15T07:02:39.335Z,22.0
2023-04-15T07:04:35.368Z,21.9
2023-04-15T07:06:35.323Z,22.0
2023-04-15T07:08:35.411Z,21.8
2023-04-15T07:10:35.715Z,22.3
2023-04-15T07:12:35.400Z,22.4
2023-04-15T07:14:40.231Z,22.6
2023-04-15T07:16:35.380Z,22.5
2023-04-15T07:18:35.513Z,22.5
2023-04-15T07:20:35.374Z,22.4
2023-04-15T07:22:35.317Z,22.5
2023-04-15T07:24:35.337Z,22.3
2023-04-15T07:26:38.407Z,21.7
2023-04-15T07:28:35.468Z,21.6
2023-04-15T07:30:35.575Z,21.3
2023-04-15T07:32:35.382Z,21.4
2023-04-15T07:34:35.357Z,21.6
2023-04-15T07:36:35.426Z,21.5
2023-04-15T07:38:35.494Z,21.2
2023-04-15T07:40:40.401Z,21.5
2023-04-15T07:42:35.341Z,21.6
2023-04-15T07:44:35.429Z,21.6
2023-04-15T07:47:35.448Z,22.0
2023-04-15T07:49:35.566Z,22.0
2023-04-15T07:51:35.511Z,22.1
2023-04-15T07:53:35.434Z,22.2
2023-04-15T07:55:35.449Z,22.3
2023-04-15T07:57:35.405Z,22.0
2023-04-15T08:56:17.526Z,22.1
2023-04-15T08:58:17.211Z,22.3
2023-04-15T09:00:17.430Z,22.6
2023-04-15T09:02:17.633Z,22.8
2023-04-15T09:04:17.290Z,22.7
2023-04-15T09:06:17.253Z,22.7
2023-04-15T09:08:22.120Z,22.7
2023-04-15T09:10:23.057Z,22.6
2023-04-15T09:12:17.524Z,22.5
2023-04-15T09:14:17.181Z,22.5
2023-04-15T09:16:17.420Z,22.4
2023-04-15T09:18:17.375Z,22.0
2023-04-15T09:20:17.339Z,21.8
2023-04-15T09:22:17.249Z,21.7
2023-04-15T09:24:18.565Z,21.8
2023-04-15T09:26:20.232Z,21.8
2023-04-15T09:28:18.308Z,21.8
2023-04-15T09:30:17.476Z,21.7
2023-04-15T09:32:17.446Z,21.5
2023-04-15T09:34:17.188Z,21.9
2023-04-15T09:36:17.379Z,22.0
2023-04-15T09:38:22.104Z,22.2
2023-04-15T09:40:23.016Z,22.2
2023-04-15T09:42:17.466Z,22.0
2023-04-15T09:44:17.766Z,22.0
2023-04-15T09:46:17.421Z,22.0
2023-04-15T09:48:19.243Z,22.2
2023-04-15T09:50:17.470Z,21.9
2023-04-15T09:52:17.145Z,21.7
2023-04-15T09:54:17.178Z,21.4
2023-04-15T09:56:17.108Z,21.1
2023-04-15T09:58:17.126Z,21.0
2023-04-15T10:00:17.220Z,21.4
2023-04-15T10:02:17.290Z,21.2
2023-04-15T10:04:17.329Z,21.2
2023-04-15T10:06:17.196Z,21.1
2023-04-15T10:08:17.161Z,21.0
2023-04-15T10:10:17.270Z,21.0
2023-04-15T10:12:17.183Z,21.0
2023-04-15T10:14:17.304Z,21.0
2023-04-15T10:16:17.206Z,21.1
2023-04-15T10:18:17.161Z,21.0
2023-04-15T10:20:17.282Z,21.1
2023-04-15T10:22:17.206Z,21.2
2023-04-15T10:24:17.172Z,21.0
2023-04-15T10:26:17.191Z,21.2
2023-04-15T10:28:17.263Z,21.0
2023-04-15T10:30:19.182Z,20.9
2023-04-15T10:32:19.579Z,20.9
2023-04-15T10:34:17.226Z,20.4
2023-04-15T10:36:17.182Z,20.4
2023-04-15T10:38:17.200Z,20.0
2023-04-15T10:40:17.203Z,19.9
2023-04-15T10:42:17.298Z,19.8
2023-04-15T10:44:17.191Z,19.8
2023-04-15T10:46:17.588Z,10.0
2023-04-15T10:48:17.625Z,17.7
2023-04-15T10:50:17.186Z,19.2
2023-04-15T10:52:17.135Z,19.9
2023-04-15T10:54:17.277Z,20.7
2023-04-15T10:56:17.439Z,21.7
2023-04-15T10:58:17.503Z,24.9
2023-04-15T11:00:18.329Z,24.0
2023-04-15T11:02:17.432Z,23.1
2023-04-15T11:05:17.229Z,22.9
2023-04-15T11:07:17.609Z,23.3
2023-04-15T11:08:46.018Z,23.1
2023-04-15T11:10:41.132Z,23.0
2023-04-15T11:12:41.078Z,23.1
2023-04-15T11:14:41.082Z,23.2
2023-04-15T11:16:41.225Z,22.9
2023-04-15T11:18:41.079Z,22.8
2023-04-15T11:20:41.239Z,22.6
2023-04-15T11:22:41.014Z,22.4
2023-04-15T11:24:41.015Z,22.1
2023-04-15T11:26:41.050Z,21.6
2023-04-15T11:28:41.029Z,21.4
2023-04-15T11:30:41.467Z,21.3
2023-04-15T11:32:48.341Z,21.2
2023-04-15T11:34:41.038Z,21.0
2023-04-15T11:36:41.802Z,20.9
2023-04-15T11:38:41.341Z,20.8
2023-04-15T11:40:42.473Z,20.9
2023-04-15T11:42:49.626Z,20.9
2023-04-15T11:44:41.116Z,20.8
2023-04-15T11:46:41.118Z,21.1
2023-04-15T11:48:41.112Z,21.0
2023-04-15T11:50:41.024Z,21.0
2023-04-15T11:52:42.011Z,20.9
2023-04-15T11:54:41.619Z,20.6
2023-04-15T11:56:41.159Z,20.3
2023-04-15T11:58:41.026Z,19.6
2023-04-15T12:00:41.081Z,19.8
2023-04-15T12:02:41.290Z,20.2
2023-04-15T12:04:41.449Z,20.1
2023-04-15T12:06:41.181Z,20.0
2023-04-15T12:08:41.042Z,19.9
2023-04-15T12:10:41.052Z,19.7
2023-04-15T12:12:41.065Z,19.5
2023-04-15T12:16:49.402Z,19.4
2023-04-15T12:18:41.066Z,19.2
2023-04-15T12:20:41.204Z,19.6
2023-04-15T12:22:41.030Z,19.8
2023-04-15T12:24:41.024Z,20.2
2023-04-15T12:26:45.957Z,20.8
2023-04-15T12:28:40.960Z,20.9
2023-04-15T12:31:41.109Z,21.1
2023-04-15T12:33:41.033Z,21.3
2023-04-15T12:35:40.965Z,21.3
2023-04-15T12:36:44.995Z,21.4
2023-04-15T12:39:41.116Z,21.5
2023-04-15T12:41:41.026Z,21.9
2023-04-15T12:43:40.991Z,21.9
2023-04-15T12:45:40.987Z,22.0
2023-04-15T12:47:42.195Z,22.0
2023-04-15T12:49:41.262Z,22.2
2023-04-15T12:51:41.024Z,22.1
2023-04-15T12:53:41.036Z,22.3
2023-04-15T12:55:41.002Z,22.6
2023-04-15T12:57:41.368Z,22.7
2023-04-15T12:59:42.629Z,22.7
2023-04-15T13:01:41.492Z,22.4
2023-04-15T13:03:42.496Z,22.5
2023-04-15T13:05:41.427Z,22.5
2023-04-15T13:07:41.508Z,22.6
2023-04-15T13:09:41.500Z,22.6
2023-04-15T13:11:41.444Z,22.8
2023-04-15T13:13:44.817Z,22.9
2023-04-15T13:15:41.371Z,23.1
2023-04-15T13:17:41.398Z,23.1
2023-04-15T13:19:41.394Z,23.2
2023-04-15T13:21:41.538Z,23.1
2023-04-15T13:23:41.486Z,22.8
2023-04-15T13:25:41.465Z,22.6
2023-04-15T13:27:41.398Z,22.5
2023-04-15T13:29:41.449Z,22.5
2023-04-15T13:31:41.298Z,22.7
2023-04-15T13:33:41.577Z,22.6
2023-04-15T13:35:41.457Z,22.9
2023-04-15T13:37:41.484Z,22.8
2023-04-15T13:39:41.637Z,22.7
2023-04-15T13:41:41.451Z,22.2
2023-04-15T13:43:41.478Z,22.3
2023-04-15T13:45:41.435Z,22.1
2023-04-15T13:47:41.478Z,22.1
2023-04-15T13:49:41.476Z,22.0
2023-04-15T13:51:41.374Z,22.0
2023-04-15T13:53:41.404Z,22.0
2023-04-15T13:55:41.397Z,21.9
2023-04-15T13:57:41.652Z,21.9
2023-04-15T13:59:41.417Z,22.1
2023-04-15T14:01:41.577Z,22.2
2023-04-15T14:03:41.722Z,21.8
2023-04-15T14:05:41.323Z,21.6
2023-04-15T14:07:45.286Z,21.8
2023-04-15T14:09:43.293Z,21.9
2023-04-15T14:11:41.431Z,21.7
2023-04-15T14:13:43.992Z,21.5
2023-04-15T14:15:41.403Z,21.5
2023-04-15T14:17:41.603Z,21.3
2023-04-15T14:19:41.079Z,21.1
2023-04-15T14:21:41.046Z,21.0
2023-04-15T14:23:41.070Z,21.0
2023-04-15T14:25:41.117Z,21.0
2023-04-15T14:27:46.007Z,20.9
2023-04-15T14:29:41.131Z,20.7
2023-04-15T14:31:41.229Z,20.4
2023-04-15T14:33:41.111Z,20.6
2023-04-15T14:35:45.839Z,20.6
2023-04-15T14:37:41.099Z,20.7
2023-04-15T14:39:41.161Z,20.9
2023-04-15T14:41:46.179Z,21.1
2023-04-15T14:43:41.154Z,21.0
2023-04-15T14:45:43.632Z,21.0
2023-04-15T14:47:41.133Z,21.0
2023-04-15T14:49:41.087Z,21.0
2023-04-15T14:51:41.796Z,21.1
2023-04-15T14:53:41.099Z,21.2
2023-04-15T14:55:41.105Z,21.2
2023-04-15T14:57:41.252Z,21.0
2023-04-15T14:59:45.983Z,20.9
2023-04-15T15:01:41.299Z,21.0
2023-04-15T15:03:41.180Z,21.3
2023-04-15T15:05:41.249Z,21.3
2023-04-15T15:07:41.245Z,21.1
2023-04-15T15:09:41.092Z,21.2
2023-04-15T15:11:41.132Z,21.2
2023-04-15T15:13:46.920Z,21.4
2023-04-15T15:15:41.208Z,21.2
2023-04-15T15:17:41.245Z,21.3
2023-04-15T15:19:41.209Z,21.2
2023-04-15T15:21:41.210Z,21.2
2023-04-15T15:23:41.126Z,21.3
2023-04-15T15:25:41.255Z,21.1
2023-04-15T15:27:41.066Z,21.5
2023-04-15T15:29:43.942Z,21.3
2023-04-15T15:31:41.161Z,21.3
2023-04-15T15:33:41.227Z,20.9
2023-04-15T15:35:41.139Z,20.8
2023-04-15T15:37:41.072Z,20.7
2023-04-15T15:39:41.160Z,20.8
2023-04-15T15:41:43.102Z,20.6
2023-04-15T15:43:41.157Z,20.6
2023-04-15T15:45:41.742Z,20.5
2023-04-15T15:47:41.130Z,20.8
2023-04-15T15:49:41.086Z,20.5
2023-04-15T15:51:41.143Z,20.6
2023-04-15T15:53:41.125Z,20.3
2023-04-15T15:55:41.210Z,20.5
2023-04-15T15:57:41.093Z,20.6
2023-04-15T15:59:41.105Z,20.4
2023-04-15T16:01:41.104Z,20.2
2023-04-15T16:03:41.307Z,20.1
2023-04-15T16:05:42.905Z,20.3
2023-04-15T16:07:41.136Z,20.4
2023-04-15T16:09:41.335Z,20.2
2023-04-15T16:11:41.094Z,20.4
2023-04-15T16:13:41.196Z,20.5
2023-04-15T16:16:44.314Z,20.4
2023-04-15T16:18:41.232Z,20.5
2023-04-15T16:20:41.162Z,20.8
2023-04-15T16:22:41.125Z,20.8
2023-04-15T16:24:41.118Z,20.6
2023-04-15T16:26:41.186Z,20.5
2023-04-15T16:28:41.290Z,20.4
2023-04-15T16:30:41.154Z,20.8
2023-04-15T16:32:41.236Z,20.8
2023-04-15T16:34:41.349Z,20.9
2023-04-15T16:36:41.150Z,20.7
2023-04-15T16:38:41.369Z,20.8
2023-04-15T16:40:41.178Z,20.6
2023-04-15T16:42:41.141Z,20.8
2023-04-15T16:44:41.245Z,20.6
2023-04-15T16:46:41.257Z,20.0
2023-04-15T16:48:42.985Z,21.7
2023-04-15T16:49:55.623Z,22.5
2023-04-15T16:52:41.224Z,20.0
2023-04-15T16:54:41.421Z,20.6
2023-04-15T16:56:41.356Z,20.8
2023-04-15T16:58:41.410Z,21.7
2023-04-15T17:00:42.482Z,21.5
2023-04-15T17:02:41.390Z,21.5
2023-04-15T17:04:41.332Z,20.7
2023-04-15T17:06:41.201Z,21.2
2023-04-15T17:08:41.317Z,21.0
2023-04-15T17:11:56.855Z,21.0
2023-04-15T17:13:58.680Z,21.5
2023-04-15T17:16:56.775Z,21.5
2023-04-15T17:18:57.094Z,21.2
2023-04-15T17:20:56.814Z,21.3
2023-04-15T17:22:56.688Z,21.3
2023-04-15T17:24:56.867Z,20.9
2023-04-15T17:26:56.775Z,21.0
2023-04-15T17:28:56.699Z,20.9
2023-04-15T17:30:59.044Z,20.7
2023-04-15T17:32:57.241Z,20.5
2023-04-15T17:34:56.794Z,20.4
2023-04-15T17:36:56.737Z,20.1
2023-04-15T17:38:56.784Z,20.2
2023-04-15T17:40:56.837Z,20.3
2023-04-15T17:42:56.757Z,20.5
2023-04-15T17:44:56.726Z,20.6
2023-04-15T17:46:56.881Z,20.6
2023-04-15T17:48:59.750Z,20.5
2023-04-15T17:50:56.690Z,20.5
2023-04-15T17:53:01.610Z,20.5
2023-04-15T17:54:56.684Z,20.2
2023-04-15T17:56:56.759Z,20.0
2023-04-15T17:58:56.917Z,19.7
2023-04-15T18:00:56.691Z,19.8
2023-04-15T18:02:56.953Z,19.8
2023-04-15T18:04:56.891Z,19.9
2023-04-15T18:06:56.779Z,19.6
2023-04-15T18:08:56.786Z,19.8
2023-04-15T18:10:56.753Z,19.7
2023-04-15T18:12:56.728Z,19.5
2023-04-15T18:14:56.706Z,19.8
2023-04-15T18:16:56.775Z,19.7
2023-04-15T18:18:56.776Z,19.9
2023-04-15T18:20:56.781Z,19.9
2023-04-15T18:22:56.697Z,19.9
2023-04-15T18:24:56.703Z,19.9
2023-04-15T18:26:56.719Z,19.9
2023-04-15T18:28:56.765Z,19.8
2023-04-15T18:30:56.778Z,20.2
2023-04-15T18:32:57.218Z,20.3
2023-04-15T18:34:56.754Z,20.6
2023-04-15T18:36:56.797Z,20.8
2023-04-15T18:38:56.769Z,20.8
2023-04-15T18:40:56.814Z,20.5
2023-04-15T18:42:56.726Z,20.3
2023-04-15T18:44:56.714Z,20.4
2023-04-15T18:46:56.734Z,20.5
2023-04-15T18:49:01.077Z,20.5
2023-04-15T18:50:56.737Z,20.5
2023-04-15T18:53:02.274Z,20.5
2023-04-15T18:54:56.753Z,20.6
2023-04-15T18:56:56.809Z,20.8
2023-04-15T18:59:28.654Z,20.9
2023-04-15T19:00:57.681Z,20.8
2023-04-15T19:02:57.479Z,20.6
2023-04-15T19:04:57.140Z,20.7
2023-04-15T19:06:57.382Z,20.7
2023-04-15T19:08:57.458Z,20.6
2023-04-15T19:10:57.180Z,20.9
2023-04-15T19:13:02.425Z,20.6
2023-04-15T19:14:56.841Z,20.1
2023-04-15T19:16:57.716Z,20.3
2023-04-15T19:18:57.260Z,20.3
2023-04-15T19:20:57.189Z,20.3
2023-04-15T19:22:57.836Z,20.5
2023-04-15T19:24:57.306Z,20.6
2023-04-15T19:26:56.970Z,20.6
2023-04-15T19:28:57.165Z,20.7
2023-04-15T19:30:57.482Z,20.4
2023-04-15T19:32:57.448Z,20.4
2023-04-15T19:35:02.277Z,20.3
2023-04-15T19:36:57.259Z,20.2
2023-04-15T19:38:58.469Z,20.1
2023-04-15T19:40:57.406Z,20.3
2023-04-15T19:42:57.486Z,20.5
2023-04-15T19:45:01.320Z,20.2
2023-04-15T19:46:57.002Z,20.0
2023-04-15T19:48:57.053Z,20.0
2023-04-15T19:50:57.912Z,20.3
2023-04-15T19:52:56.934Z,20.5
2023-04-15T19:54:57.565Z,20.6
2023-04-15T19:56:57.326Z,20.7
2023-04-15T19:58:57.215Z,20.5
2023-04-15T20:00:56.962Z,20.5
2023-04-15T20:02:57.507Z,20.8
2023-04-15T20:04:57.237Z,20.8
2023-04-15T20:06:57.311Z,21.0
2023-04-15T20:08:57.645Z,21.4
2023-04-15T20:11:00.384Z,21.4
2023-04-15T20:12:57.266Z,21.7
2023-04-15T20:14:57.264Z,21.7
2023-04-15T20:16:57.276Z,21.6
2023-04-15T20:18:57.304Z,21.9
2023-04-15T20:20:56.761Z,21.9
2023-04-15T20:22:57.181Z,21.7
2023-04-15T20:24:56.882Z,21.9
2023-04-15T20:26:57.185Z,22.0
2023-04-15T20:28:57.237Z,21.8
2023-04-15T20:31:00.865Z,22.2
2023-04-15T20:32:57.209Z,22.2
2023-04-15T20:34:57.199Z,22.2
2023-04-15T20:36:57.218Z,22.6
2023-04-15T20:39:03.166Z,22.8
2023-04-15T20:40:56.791Z,22.9
2023-04-15T20:43:01.689Z,22.7
2023-04-15T20:46:04.419Z,22.8
2023-04-15T20:47:56.902Z,22.5
2023-04-15T20:49:56.929Z,22.8
2023-04-15T20:51:59.793Z,22.6
2023-04-15T20:53:56.822Z,22.6
2023-04-15T20:55:56.883Z,22.7
2023-04-15T20:57:57.179Z,22.3
2023-04-15T20:59:56.885Z,22.4
2023-04-15T21:01:59.740Z,22.4
2023-04-15T21:03:57.033Z,22.5
2023-04-15T21:05:59.812Z,22.5
2023-04-15T21:07:56.933Z,22.1
2023-04-15T21:09:57.118Z,21.7
2023-04-15T21:12:00.536Z,21.6
2023-04-15T21:13:56.954Z,21.7
2023-04-15T21:15:57.288Z,21.8
2023-04-15T21:17:57.529Z,21.8
2023-04-15T21:19:56.972Z,21.6
2023-04-15T21:21:57.049Z,21.6
2023-04-15T21:23:56.848Z,21.3
2023-04-15T21:25:56.871Z,21.1
2023-04-15T21:27:56.885Z,21.5
2023-04-15T21:29:56.832Z,21.5
2023-04-15T21:31:56.931Z,21.3
2023-04-15T21:33:56.843Z,21.4
2023-04-15T21:35:56.915Z,21.1
2023-04-15T21:37:57.025Z,20.9
2023-04-15T21:39:59.936Z,20.8
2023-04-15T21:41:57.073Z,20.6
2023-04-15T21:43:56.946Z,20.9
2023-04-15T21:46:21.863Z,21.0
2023-04-15T21:48:07.466Z,21.0
2023-04-15T21:49:56.974Z,21.0
2023-04-15T21:51:56.946Z,20.7
2023-04-15T21:54:00.446Z,20.6
2023-04-15T21:55:57.616Z,20.5
2023-04-15T21:57:56.873Z,20.5
2023-04-15T21:59:56.838Z,20.8
2023-04-15T22:01:57.093Z,20.8
2023-04-15T22:03:57.086Z,20.6
2023-04-15T22:05:57.061Z,20.6
2023-04-15T22:07:57.062Z,20.8
2023-04-15T22:09:56.949Z,21.0
2023-04-15T22:11:56.968Z,21.1
2023-04-15T22:13:56.994Z,21.0
2023-04-15T22:15:57.272Z,21.1
2023-04-15T22:17:57.005Z,21.0
2023-04-15T22:19:59.454Z,20.9
2023-04-15T22:21:57.215Z,21.1
2023-04-15T22:24:39.379Z,21.2
2023-04-15T22:25:57.135Z,21.2
2023-04-15T22:27:57.067Z,20.9
2023-04-15T22:29:56.960Z,21.0
2023-04-15T22:31:56.883Z,21.0
2023-04-15T22:33:57.083Z,20.8
2023-04-15T22:35:56.988Z,20.7
2023-04-15T22:37:56.995Z,20.8
2023-04-15T22:39:56.861Z,20.6
2023-04-15T22:41:56.993Z,20.6
2023-04-15T22:43:56.882Z,20.5
2023-04-15T22:45:59.723Z,20.2
2023-04-15T22:47:56.845Z,26.0
2023-04-15T22:49:56.972Z,22.0
2023-04-15T22:51:56.974Z,21.3
2023-04-15T22:53:59.401Z,21.8
2023-04-15T22:55:57.635Z,21.2
2023-04-15T22:57:56.901Z,21.9
2023-04-15T22:59:56.873Z,20.9
2023-04-15T23:01:56.934Z,20.0
2023-04-15T23:04:06.010Z,19.0
2023-04-15T23:05:56.899Z,19.2
2023-04-15T23:07:56.903Z,19.5
2023-04-15T23:10:02.072Z,19.3
2023-04-15T23:11:57.014Z,19.2
2023-04-15T23:13:56.884Z,19.7
2023-04-15T23:15:57.133Z,19.7
2023-04-15T23:17:56.951Z,19.6
2023-04-15T23:20:07.367Z,19.6
2023-04-15T23:22:07.268Z,19.8
2023-04-15T23:24:07.288Z,19.8
2023-04-15T23:26:07.427Z,20.0
2023-04-15T23:28:07.505Z,20.0
2023-04-15T23:30:07.508Z,19.8
2023-04-15T23:32:07.271Z,19.7
2023-04-15T23:34:12.183Z,19.9
2023-04-15T23:36:07.394Z,20.0
2023-04-15T23:38:07.816Z,20.0
2023-04-15T23:40:07.489Z,20.0
2023-04-15T23:42:08.536Z,19.9
2023-04-15T23:44:07.731Z,20.1
2023-04-15T23:46:09.423Z,20.2
2023-04-15T23:48:07.457Z,19.9
2023-04-15T23:50:07.503Z,19.8
2023-04-15T23:52:07.361Z,19.7
2023-04-15T23:54:07.630Z,19.6
2023-04-15T23:56:07.298Z,19.6
2023-04-15T23:58:07.411Z,19.5
